Time,TemperatureF,DewpointF,PressureIn,WindDirection,WindDirectionDegrees,WindSpeedMPH,WindSpeedGustMPH,Humidity,HourlyPrecipIn,Conditions,Clouds,dailyrainin,SoftwareType,DateUTC
2013-10-13 00:00:00,62.4,60.7,30.11,SE,131,0.0,0.0,94,0.00,,,0.00,Wunderground v.1.15,2013-10-13 04:00:00,
2013-10-13 00:05:00,62.2,60.5,30.10,SE,131,0.0,0.0,94,0.00,,,0.00,Wunderground v.1.15,2013-10-13 04:05:00,
2013-10-13 00:10:00,62.2,60.5,30.10,SW,231,0.0,1.0,94,0.00,,,0.00,Wunderground v.1.15,2013-10-13 04:10:00,
2013-10-13 00:15:00,62.2,60.5,30.11,SW,231,0.0,1.0,94,0.00,,,0.00,Wunderground v.1.15,2013-10-13 04:15:00,
2013-10-13 00:20:00,62.2,60.5,30.11,WSW,238,0.0,0.0,94,0.00,,,0.00,Wunderground v.1.15,2013-10-13 04:20:00,
2013-10-13 00:30:00,62.5,60.4,30.11,SW,226,0.0,2.0,93,0.00,,,0.00,Wunderground v.1.15,2013-10-13 04:30:00,
2013-10-13 00:40:00,62.7,60.3,30.11,WSW,243,0.0,0.0,92,0.00,,,0.00,Wunderground v.1.15,2013-10-13 04:40:00,
2013-10-13 00:45:00,62.8,60.1,30.11,SSW,197,0.0,0.0,91,0.00,,,0.00,Wunderground v.1.15,2013-10-13 04:45:00,
2013-10-13 00:55:00,62.6,59.9,30.11,SW,226,0.0,1.0,91,0.00,,,0.00,Wunderground v.1.15,2013-10-13 04:55:00,
2013-10-13 01:00:00,62.8,60.1,30.11,SW,226,0.0,1.0,91,0.00,,,0.00,Wunderground v.1.15,2013-10-13 05:00:00,
2013-10-13 01:05:00,62.7,59.7,30.11,SW,226,0.0,1.0,90,0.00,,,0.00,Wunderground v.1.15,2013-10-13 05:05:00,
2013-10-13 01:15:00,62.5,59.5,30.11,SE,127,0.0,0.0,90,0.00,,,0.00,Wunderground v.1.15,2013-10-13 05:15:00,
2013-10-13 01:20:00,62.4,59.4,30.11,SSW,198,0.0,0.0,90,0.00,,,0.00,Wunderground v.1.15,2013-10-13 05:20:00,
2013-10-13 01:30:00,62.3,59.3,30.11,South,170,0.0,0.0,90,0.00,,,0.00,Wunderground v.1.15,2013-10-13 05:30:00,
2013-10-13 01:40:00,62.3,59.3,30.11,WSW,240,0.0,0.0,90,0.00,,,0.00,Wunderground v.1.15,2013-10-13 05:40:00,
2013-10-13 01:50:00,62.4,59.1,30.12,SW,220,0.0,0.0,89,0.00,,,0.00,Wunderground v.1.15,2013-10-13 05:50:00,
2013-10-13 01:55:00,62.3,59.0,30.12,WSW,242,0.0,0.0,89,0.00,,,0.00,Wunderground v.1.15,2013-10-13 05:55:00,
2013-10-13 02:00:00,62.2,58.9,30.12,SW,232,1.0,1.0,89,0.00,,,0.00,Wunderground v.1.15,2013-10-13 06:00:00,
2013-10-13 02:10:00,61.9,58.6,30.12,SW,232,0.0,0.0,89,0.00,,,0.00,Wunderground v.1.15,2013-10-13 06:10:00,
2013-10-13 02:20:00,61.8,58.5,30.13,SW,233,0.0,0.0,89,0.00,,,0.00,Wunderground v.1.15,2013-10-13 06:20:00,
2013-10-13 02:30:00,61.7,58.4,30.13,WSW,240,0.0,1.0,89,0.00,,,0.00,Wunderground v.1.15,2013-10-13 06:30:00,
2013-10-13 02:40:00,61.5,58.2,30.13,WSW,240,0.0,0.0,89,0.00,,,0.00,Wunderground v.1.15,2013-10-13 06:40:00,
2013-10-13 02:45:00,61.3,58.3,30.13,SW,233,0.0,0.0,90,0.00,,,0.00,Wunderground v.1.15,2013-10-13 06:45:00,
2013-10-13 02:55:00,60.9,57.9,30.14,SW,233,0.0,0.0,90,0.00,,,0.00,Wunderground v.1.15,2013-10-13 06:55:00,
2013-10-13 03:00:00,60.7,57.7,30.14,SW,233,0.0,0.0,90,0.00,,,0.00,Wunderground v.1.15,2013-10-13 07:00:00,
2013-10-13 03:10:00,60.4,57.8,30.14,SW,233,0.0,0.0,91,0.00,,,0.00,Wunderground v.1.15,2013-10-13 07:10:00,
2013-10-13 03:15:00,60.2,57.6,30.14,SW,233,0.0,0.0,91,0.00,,,0.00,Wunderground v.1.15,2013-10-13 07:15:00,
2013-10-13 03:25:00,60.0,57.7,30.14,SW,233,0.0,0.0,92,0.00,,,0.00,Wunderground v.1.15,2013-10-13 07:25:00,
2013-10-13 03:30:00,60.0,57.7,30.14,SW,233,0.0,0.0,92,0.00,,,0.00,Wunderground v.1.15,2013-10-13 07:30:00,
2013-10-13 03:40:00,59.9,57.6,30.14,West,266,0.0,1.0,92,0.00,,,0.00,Wunderground v.1.15,2013-10-13 07:40:00,
2013-10-13 03:45:00,59.9,57.6,30.15,West,275,0.0,1.0,92,0.00,,,0.00,Wunderground v.1.15,2013-10-13 07:45:00,
2013-10-13 03:55:00,59.6,57.3,30.15,West,274,0.0,1.0,92,0.00,,,0.00,Wunderground v.1.15,2013-10-13 07:55:00,
2013-10-13 04:00:00,59.4,57.4,30.15,West,278,0.0,0.0,93,0.00,,,0.00,Wunderground v.1.15,2013-10-13 08:00:00,
2013-10-13 04:10:00,59.1,57.1,30.15,West,277,1.0,1.0,93,0.00,,,0.00,Wunderground v.1.15,2013-10-13 08:10:00,
2013-10-13 04:15:00,59.0,57.0,30.16,West,277,0.0,1.0,93,0.00,,,0.00,Wunderground v.1.15,2013-10-13 08:15:00,
2013-10-13 04:25:00,58.8,57.1,30.16,West,277,0.0,0.0,94,0.00,,,0.00,Wunderground v.1.15,2013-10-13 08:25:00,
2013-10-13 04:30:00,58.7,57.0,30.16,West,277,0.0,0.0,94,0.00,,,0.00,Wunderground v.1.15,2013-10-13 08:30:00,
2013-10-13 04:40:00,58.8,57.1,30.16,West,278,0.0,1.0,94,0.00,,,0.00,Wunderground v.1.15,2013-10-13 08:40:00,
2013-10-13 04:45:00,58.8,57.1,30.17,West,277,1.0,1.0,94,0.00,,,0.00,Wunderground v.1.15,2013-10-13 08:45:00,
2013-10-13 04:55:00,59.0,57.3,30.17,West,276,1.0,1.0,94,0.00,,,0.00,Wunderground v.1.15,2013-10-13 08:55:00,
2013-10-13 05:00:00,59.0,57.3,30.17,West,277,1.0,1.0,94,0.00,,,0.00,Wunderground v.1.15,2013-10-13 09:00:00,
2013-10-13 05:10:00,59.1,57.4,30.17,West,276,0.0,1.0,94,0.00,,,0.00,Wunderground v.1.15,2013-10-13 09:10:00,
2013-10-13 05:20:00,59.3,57.6,30.17,West,276,1.0,1.0,94,0.00,,,0.00,Wunderground v.1.15,2013-10-13 09:20:00,
2013-10-13 05:30:00,59.4,57.7,30.18,West,276,0.0,0.0,94,0.00,,,0.00,Wunderground v.1.15,2013-10-13 09:30:00,
2013-10-13 05:40:00,59.6,57.9,30.18,West,277,0.0,1.0,94,0.00,,,0.00,Wunderground v.1.15,2013-10-13 09:40:00,
2013-10-13 05:45:00,59.7,57.7,30.18,West,279,0.0,1.0,93,0.00,,,0.00,Wunderground v.1.15,2013-10-13 09:45:00,
2013-10-13 05:55:00,59.8,57.8,30.19,West,279,0.0,0.0,93,0.00,,,0.00,Wunderground v.1.15,2013-10-13 09:55:00,
2013-10-13 06:00:00,59.8,57.8,30.19,West,279,0.0,0.0,93,0.00,,,0.00,Wunderground v.1.15,2013-10-13 10:00:00,
2013-10-13 06:10:00,59.9,57.9,30.20,WNW,283,1.0,1.0,93,0.00,,,0.00,Wunderground v.1.15,2013-10-13 10:10:00,
2013-10-13 06:20:00,59.8,57.8,30.20,West,281,0.0,0.0,93,0.00,,,0.00,Wunderground v.1.15,2013-10-13 10:20:00,
2013-10-13 06:25:00,59.8,57.8,30.21,West,281,0.0,0.0,93,0.00,,,0.00,Wunderground v.1.15,2013-10-13 10:25:00,
2013-10-13 06:35:00,59.7,57.4,30.21,West,278,0.0,0.0,92,0.00,,,0.00,Wunderground v.1.15,2013-10-13 10:35:00,
2013-10-13 06:40:00,59.7,57.4,30.21,West,278,0.0,0.0,92,0.00,,,0.00,Wunderground v.1.15,2013-10-13 10:40:00,
2013-10-13 06:50:00,59.4,57.1,30.22,West,276,1.0,1.0,92,0.00,,,0.00,Wunderground v.1.15,2013-10-13 10:50:00,
2013-10-13 06:55:00,59.3,57.0,30.22,West,278,1.0,1.0,92,0.00,,,0.00,Wunderground v.1.15,2013-10-13 10:55:00,
2013-10-13 07:00:00,59.3,57.0,30.22,West,274,1.0,1.0,92,0.00,,,0.00,Wunderground v.1.15,2013-10-13 11:00:00,
2013-10-13 07:10:00,59.0,56.7,30.22,West,275,0.0,0.0,92,0.00,,,0.00,Wunderground v.1.15,2013-10-13 11:10:00,
2013-10-13 07:20:00,59.0,56.7,30.23,West,276,0.0,0.0,92,0.00,,,0.00,Wunderground v.1.15,2013-10-13 11:20:00,
2013-10-13 07:25:00,58.9,56.6,30.23,WSW,258,0.0,0.0,92,0.00,,,0.00,Wunderground v.1.15,2013-10-13 11:25:00,
2013-10-13 07:35:00,58.6,56.0,30.23,NW,309,0.0,0.0,91,0.00,,,0.00,Wunderground v.1.15,2013-10-13 11:35:00,
2013-10-13 07:40:00,58.5,55.6,30.23,WNW,295,0.0,0.0,90,0.00,,,0.00,Wunderground v.1.15,2013-10-13 11:40:00,
2013-10-13 07:50:00,58.2,54.3,30.24,West,272,1.0,1.0,87,0.00,,,0.00,Wunderground v.1.15,2013-10-13 11:50:00,
2013-10-13 07:55:00,58.1,53.9,30.24,NW,323,1.0,1.0,86,0.00,,,0.00,Wunderground v.1.15,2013-10-13 11:55:00,
2013-10-13 08:00:00,58.0,53.5,30.24,West,267,1.0,1.0,85,0.00,,,0.00,Wunderground v.1.15,2013-10-13 12:00:00,
2013-10-13 08:10:00,57.6,52.1,30.24,WNW,294,1.0,1.0,82,0.00,,,0.00,Wunderground v.1.15,2013-10-13 12:10:00,
2013-10-13 08:20:00,57.5,51.7,30.24,NNE,17,1.0,1.0,81,0.00,,,0.00,Wunderground v.1.15,2013-10-13 12:20:00,
2013-10-13 08:25:00,57.4,50.9,30.25,WNW,290,1.0,1.0,79,0.00,,,0.00,Wunderground v.1.15,2013-10-13 12:25:00,
2013-10-13 08:35:00,57.5,50.7,30.25,NW,319,2.0,4.0,78,0.00,,,0.00,Wunderground v.1.15,2013-10-13 12:35:00,
2013-10-13 08:40:00,57.5,50.3,30.25,NW,323,2.0,2.0,77,0.00,,,0.00,Wunderground v.1.15,2013-10-13 12:40:00,
2013-10-13 08:50:00,57.5,50.0,30.26,NNW,332,1.0,6.0,76,0.00,,,0.00,Wunderground v.1.15,2013-10-13 12:50:00,
2013-10-13 08:55:00,57.5,50.0,30.26,NNW,343,3.0,6.0,76,0.00,,,0.00,Wunderground v.1.15,2013-10-13 12:55:00,
2013-10-13 09:00:00,57.6,50.1,30.27,NNW,345,3.0,3.0,76,0.00,,,0.00,Wunderground v.1.15,2013-10-13 13:00:00,
2013-10-13 09:10:00,57.8,49.9,30.27,NNW,340,2.0,3.0,75,0.00,,,0.00,Wunderground v.1.15,2013-10-13 13:10:00,
2013-10-13 09:20:00,58.0,50.1,30.28,North,352,3.0,3.0,75,0.00,,,0.00,Wunderground v.1.15,2013-10-13 13:20:00,
2013-10-13 09:25:00,58.2,50.3,30.28,NNW,342,2.0,3.0,75,0.00,,,0.00,Wunderground v.1.15,2013-10-13 13:25:00,
2013-10-13 09:35:00,58.6,50.3,30.28,NNW,335,2.0,3.0,74,0.00,,,0.00,Wunderground v.1.15,2013-10-13 13:35:00,
2013-10-13 09:40:00,58.6,49.6,30.28,North,10,2.0,2.0,72,0.00,,,0.00,Wunderground v.1.15,2013-10-13 13:40:00,
2013-10-13 09:50:00,59.2,50.2,30.29,NNW,330,1.0,1.0,72,0.00,,,0.00,Wunderground v.1.15,2013-10-13 13:50:00,
2013-10-13 09:55:00,59.5,50.1,30.29,NW,307,1.0,1.0,71,0.00,,,0.00,Wunderground v.1.15,2013-10-13 13:55:00,
2013-10-13 10:00:00,59.8,50.0,30.29,NW,307,2.0,2.0,70,0.00,,,0.00,Wunderground v.1.15,2013-10-13 14:00:00,
2013-10-13 10:10:00,60.4,49.8,30.29,WNW,297,2.0,2.0,68,0.00,,,0.00,Wunderground v.1.15,2013-10-13 14:10:00,
2013-10-13 10:15:00,60.9,49.5,30.30,NNW,335,1.0,2.0,66,0.00,,,0.00,Wunderground v.1.15,2013-10-13 14:15:00,
2013-10-13 10:25:00,61.0,48.3,30.30,WNW,297,3.0,7.0,63,0.00,,,0.00,Wunderground v.1.15,2013-10-13 14:25:00,
2013-10-13 10:35:00,61.5,48.4,30.30,NW,326,3.0,3.0,62,0.00,,,0.00,Wunderground v.1.15,2013-10-13 14:35:00,
2013-10-13 10:40:00,61.8,48.2,30.30,NNW,338,2.0,3.0,61,0.00,,,0.00,Wunderground v.1.15,2013-10-13 14:40:00,
2013-10-13 10:50:00,62.6,48.1,30.30,NNW,345,2.0,5.0,59,0.00,,,0.00,Wunderground v.1.15,2013-10-13 14:50:00,
2013-10-13 10:55:00,62.8,47.3,30.30,West,274,2.0,5.0,57,0.00,,,0.00,Wunderground v.1.15,2013-10-13 14:55:00,
2013-10-13 11:00:00,63.3,47.3,30.30,WSW,247,2.0,2.0,56,0.00,,,0.00,Wunderground v.1.15,2013-10-13 15:00:00,
2013-10-13 11:10:00,63.9,47.4,30.30,NW,307,1.0,3.0,55,0.00,,,0.00,Wunderground v.1.15,2013-10-13 15:10:00,
2013-10-13 11:15:00,63.8,45.8,30.31,North,353,2.0,3.0,52,0.00,,,0.00,Wunderground v.1.15,2013-10-13 15:15:00,
2013-10-13 11:25:00,64.4,44.8,30.31,NNW,341,2.0,3.0,49,0.00,,,0.00,Wunderground v.1.15,2013-10-13 15:25:00,
2013-10-13 11:30:00,64.3,45.8,30.31,West,264,2.0,2.0,51,0.00,,,0.00,Wunderground v.1.15,2013-10-13 15:30:00,
2013-10-13 11:40:00,65.5,46.4,30.31,NW,321,1.0,2.0,50,0.00,,,0.00,Wunderground v.1.15,2013-10-13 15:40:00,
2013-10-13 11:45:00,65.7,45.5,30.31,WSW,240,1.0,2.0,48,0.00,,,0.00,Wunderground v.1.15,2013-10-13 15:45:00,
2013-10-13 11:55:00,65.9,44.5,30.31,West,266,2.0,2.0,46,0.00,,,0.00,Wunderground v.1.15,2013-10-13 15:55:00,
2013-10-13 12:00:00,65.9,44.5,30.31,West,278,1.0,1.0,46,0.00,,,0.00,Wunderground v.1.15,2013-10-13 16:00:00,
2013-10-13 12:10:00,66.2,43.6,30.31,WNW,283,2.0,2.0,44,0.00,,,0.00,Wunderground v.1.15,2013-10-13 16:10:00,
2013-10-13 12:15:00,66.3,43.1,30.31,West,271,2.0,2.0,43,0.00,,,0.00,Wunderground v.1.15,2013-10-13 16:15:00,
2013-10-13 12:25:00,66.7,43.5,30.31,West,259,1.0,3.0,43,0.00,,,0.00,Wunderground v.1.15,2013-10-13 16:25:00,
2013-10-13 12:35:00,67.1,43.8,30.31,West,271,1.0,2.0,43,0.00,,,0.00,Wunderground v.1.15,2013-10-13 16:35:00,
2013-10-13 12:40:00,66.8,44.2,30.31,NNW,333,2.0,2.0,44,0.00,,,0.00,Wunderground v.1.15,2013-10-13 16:40:00,
2013-10-13 12:50:00,67.4,44.1,30.31,West,272,1.0,1.0,43,0.00,,,0.00,Wunderground v.1.15,2013-10-13 16:50:00,
2013-10-13 12:55:00,67.5,42.3,30.31,West,274,1.0,2.0,40,0.00,,,0.00,Wunderground v.1.15,2013-10-13 16:55:00,
2013-10-13 13:00:00,67.3,42.8,30.31,NW,310,1.0,1.0,41,0.00,,,0.00,Wunderground v.1.15,2013-10-13 17:00:00,
2013-10-13 13:10:00,68.4,42.5,30.30,NNW,345,1.0,2.0,39,0.00,,,0.00,Wunderground v.1.15,2013-10-13 17:10:00,
2013-10-13 13:15:00,67.9,41.3,30.30,West,278,1.0,2.0,38,0.00,,,0.00,Wunderground v.1.15,2013-10-13 17:15:00,
2013-10-13 13:25:00,68.4,43.1,30.30,SW,233,1.0,2.0,40,0.00,,,0.00,Wunderground v.1.15,2013-10-13 17:25:00,
2013-10-13 13:30:00,68.9,42.2,30.30,West,279,1.0,1.0,38,0.00,,,0.00,Wunderground v.1.15,2013-10-13 17:30:00,
2013-10-13 13:40:00,69.3,42.6,30.30,NW,326,1.0,1.0,38,0.00,,,0.00,Wunderground v.1.15,2013-10-13 17:40:00,
2013-10-13 13:50:00,68.9,43.6,30.30,North,349,1.0,2.0,40,0.00,,,0.00,Wunderground v.1.15,2013-10-13 17:50:00,
2013-10-13 13:55:00,67.9,43.3,30.29,North,352,2.0,2.0,41,0.00,,,0.00,Wunderground v.1.15,2013-10-13 17:55:00,
2013-10-13 14:00:00,68.2,44.2,30.29,NNW,345,2.0,4.0,42,0.00,,,0.00,Wunderground v.1.15,2013-10-13 18:00:00,
2013-10-13 14:10:00,68.0,44.0,30.28,SSW,211,2.0,2.0,42,0.00,,,0.00,Wunderground v.1.15,2013-10-13 18:10:00,
2013-10-13 14:15:00,68.6,41.3,30.29,WNW,286,1.0,2.0,37,0.00,,,0.00,Wunderground v.1.15,2013-10-13 18:15:00,
2013-10-13 14:25:00,68.0,42.1,30.29,North,354,3.0,6.0,39,0.00,,,0.00,Wunderground v.1.15,2013-10-13 18:25:00,
2013-10-13 14:30:00,68.3,41.0,30.28,WNW,291,3.0,3.0,37,0.00,,,0.00,Wunderground v.1.15,2013-10-13 18:30:00,
2013-10-13 14:40:00,68.8,42.1,30.28,NW,319,1.0,1.0,38,0.00,,,0.00,Wunderground v.1.15,2013-10-13 18:40:00,
2013-10-13 14:45:00,68.9,41.5,30.28,NE,42,2.0,2.0,37,0.00,,,0.00,Wunderground v.1.15,2013-10-13 18:45:00,
2013-10-13 14:55:00,69.5,41.4,30.28,North,353,1.0,1.0,36,0.00,,,0.00,Wunderground v.1.15,2013-10-13 18:55:00,
2013-10-13 15:00:00,69.6,41.5,30.28,NNW,346,1.0,1.0,36,0.00,,,0.00,Wunderground v.1.15,2013-10-13 19:00:00,
2013-10-13 15:10:00,70.0,40.3,30.28,West,280,1.0,2.0,34,0.00,,,0.00,Wunderground v.1.15,2013-10-13 19:10:00,
2013-10-13 15:15:00,69.4,40.5,30.28,NNW,334,1.0,3.0,35,0.00,,,0.00,Wunderground v.1.15,2013-10-13 19:15:00,
2013-10-13 15:25:00,69.8,42.3,30.28,WSW,238,1.0,2.0,37,0.00,,,0.00,Wunderground v.1.15,2013-10-13 19:25:00,
2013-10-13 15:30:00,70.3,40.6,30.28,WSW,258,1.0,1.0,34,0.00,,,0.00,Wunderground v.1.15,2013-10-13 19:30:00,
2013-10-13 15:40:00,70.3,40.6,30.28,West,266,1.0,1.0,34,0.00,,,0.00,Wunderground v.1.15,2013-10-13 19:40:00,
2013-10-13 15:45:00,70.0,39.6,30.28,West,259,2.0,2.0,33,0.00,,,0.00,Wunderground v.1.15,2013-10-13 19:45:00,
2013-10-13 15:55:00,70.2,41.3,30.28,WNW,300,1.0,2.0,35,0.00,,,0.00,Wunderground v.1.15,2013-10-13 19:55:00,
2013-10-13 16:00:00,70.3,41.3,30.28,NW,309,1.0,2.0,35,0.00,,,0.00,Wunderground v.1.15,2013-10-13 20:00:00,
2013-10-13 16:10:00,69.6,40.7,30.28,WNW,293,2.0,2.0,35,0.00,,,0.00,Wunderground v.1.15,2013-10-13 20:10:00,
2013-10-13 16:15:00,69.7,40.8,30.28,West,264,1.0,3.0,35,0.00,,,0.00,Wunderground v.1.15,2013-10-13 20:15:00,
2013-10-13 16:25:00,70.7,40.9,30.28,WNW,283,1.0,1.0,34,0.00,,,0.00,Wunderground v.1.15,2013-10-13 20:25:00,
2013-10-13 16:30:00,70.7,39.4,30.28,West,275,1.0,1.0,32,0.00,,,0.00,Wunderground v.1.15,2013-10-13 20:30:00,
2013-10-13 16:40:00,70.2,39.7,30.28,WNW,288,2.0,2.0,33,0.00,,,0.00,Wunderground v.1.15,2013-10-13 20:40:00,
2013-10-13 16:45:00,70.0,39.6,30.28,WNW,284,1.0,2.0,33,0.00,,,0.00,Wunderground v.1.15,2013-10-13 20:45:00,
2013-10-13 16:55:00,70.0,38.8,30.28,West,276,1.0,1.0,32,0.00,,,0.00,Wunderground v.1.15,2013-10-13 20:55:00,
2013-10-13 17:00:00,69.8,40.2,30.28,NNW,334,1.0,1.0,34,0.00,,,0.00,Wunderground v.1.15,2013-10-13 21:00:00,
2013-10-13 17:10:00,69.7,40.1,30.28,West,277,1.0,1.0,34,0.00,,,0.00,Wunderground v.1.15,2013-10-13 21:10:00,
2013-10-13 17:15:00,69.2,40.4,30.29,NW,315,1.0,1.0,35,0.00,,,0.00,Wunderground v.1.15,2013-10-13 21:15:00,
2013-10-13 17:25:00,68.2,40.9,30.28,WNW,300,2.0,2.0,37,0.00,,,0.00,Wunderground v.1.15,2013-10-13 21:25:00,
2013-10-13 17:30:00,68.0,39.3,30.28,WSW,258,1.0,1.0,35,0.00,,,0.00,Wunderground v.1.15,2013-10-13 21:30:00,
2013-10-13 17:40:00,67.7,39.8,30.29,NW,309,1.0,2.0,36,0.00,,,0.00,Wunderground v.1.15,2013-10-13 21:40:00,
2013-10-13 17:50:00,67.3,40.1,30.29,West,281,1.0,1.0,37,0.00,,,0.00,Wunderground v.1.15,2013-10-13 21:50:00,
2013-10-13 18:00:00,67.0,41.9,30.29,North,8,0.0,0.0,40,0.00,,,0.00,Wunderground v.1.15,2013-10-13 22:00:00,
2013-10-13 18:10:00,66.4,40.7,30.29,West,276,1.0,1.0,39,0.00,,,0.00,Wunderground v.1.15,2013-10-13 22:10:00,
2013-10-13 18:15:00,66.1,41.1,30.29,West,276,0.0,1.0,40,0.00,,,0.00,Wunderground v.1.15,2013-10-13 22:15:00,
2013-10-13 18:25:00,65.4,41.1,30.29,NW,304,0.0,0.0,41,0.00,,,0.00,Wunderground v.1.15,2013-10-13 22:25:00,
2013-10-13 18:30:00,65.0,40.7,30.29,NW,304,0.0,0.0,41,0.00,,,0.00,Wunderground v.1.15,2013-10-13 22:30:00,
2013-10-13 18:40:00,64.2,40.6,30.30,NW,304,0.0,0.0,42,0.00,,,0.00,Wunderground v.1.15,2013-10-13 22:40:00,
2013-10-13 18:50:00,63.1,40.8,30.30,NW,304,0.0,0.0,44,0.00,,,0.00,Wunderground v.1.15,2013-10-13 22:50:00,
2013-10-13 19:00:00,62.2,40.6,30.30,NW,304,0.0,0.0,45,0.00,,,0.00,Wunderground v.1.15,2013-10-13 23:00:00,
2013-10-13 19:10:00,61.5,40.5,30.30,NW,304,0.0,0.0,46,0.00,,,0.00,Wunderground v.1.15,2013-10-13 23:10:00,
2013-10-13 19:20:00,60.6,41.3,30.31,NW,304,0.0,0.0,49,0.00,,,0.00,Wunderground v.1.15,2013-10-13 23:20:00,
2013-10-13 19:30:00,59.7,42.5,30.31,NW,304,0.0,0.0,53,0.00,,,0.00,Wunderground v.1.15,2013-10-13 23:30:00,
2013-10-13 19:35:00,59.3,42.2,30.31,NW,304,0.0,0.0,53,0.00,,,0.00,Wunderground v.1.15,2013-10-13 23:35:00,
2013-10-13 19:45:00,57.4,42.7,30.31,NW,304,0.0,0.0,58,0.00,,,0.00,Wunderground v.1.15,2013-10-13 23:45:00,
2013-10-13 19:50:00,57.0,42.8,30.31,WNW,294,0.0,0.0,59,0.00,,,0.00,Wunderground v.1.15,2013-10-13 23:50:00,
2013-10-13 20:00:00,56.1,42.4,30.32,WNW,294,0.0,0.0,60,0.00,,,0.00,Wunderground v.1.15,2013-10-14 00:00:00,
2013-10-13 20:10:00,55.1,41.9,30.32,WNW,294,0.0,0.0,61,0.00,,,0.00,Wunderground v.1.15,2013-10-14 00:10:00,
2013-10-13 20:20:00,54.3,42.4,30.32,WNW,294,0.0,0.0,64,0.00,,,0.00,Wunderground v.1.15,2013-10-14 00:20:00,
2013-10-13 20:30:00,53.9,42.4,30.32,WNW,294,0.0,0.0,65,0.00,,,0.00,Wunderground v.1.15,2013-10-14 00:30:00,
2013-10-13 20:40:00,53.4,41.9,30.33,WNW,294,0.0,0.0,65,0.00,,,0.00,Wunderground v.1.15,2013-10-14 00:40:00,
2013-10-13 20:50:00,53.2,42.9,30.33,WNW,294,0.0,0.0,68,0.00,,,0.00,Wunderground v.1.15,2013-10-14 00:50:00,
2013-10-13 20:55:00,52.9,43.0,30.33,WNW,294,0.0,0.0,69,0.00,,,0.00,Wunderground v.1.15,2013-10-14 00:55:00,
2013-10-13 21:00:00,52.4,42.1,30.33,WNW,294,0.0,0.0,68,0.00,,,0.00,Wunderground v.1.15,2013-10-14 01:00:00,
2013-10-13 21:10:00,52.0,43.3,30.33,WNW,294,0.0,0.0,72,0.00,,,0.00,Wunderground v.1.15,2013-10-14 01:10:00,
2013-10-13 21:15:00,51.8,43.1,30.33,WNW,294,0.0,0.0,72,0.00,,,0.00,Wunderground v.1.15,2013-10-14 01:15:00,
2013-10-13 21:25:00,51.1,41.7,30.34,WNW,294,0.0,0.0,70,0.00,,,0.00,Wunderground v.1.15,2013-10-14 01:25:00,
2013-10-13 21:30:00,51.0,43.0,30.34,WNW,294,0.0,0.0,74,0.00,,,0.00,Wunderground v.1.15,2013-10-14 01:30:00,
2013-10-13 21:40:00,51.0,43.0,30.34,WNW,294,0.0,0.0,74,0.00,,,0.00,Wunderground v.1.15,2013-10-14 01:40:00,
2013-10-13 21:50:00,50.7,42.7,30.34,WNW,294,0.0,0.0,74,0.00,,,0.00,Wunderground v.1.15,2013-10-14 01:50:00,
2013-10-13 21:55:00,50.7,43.1,30.34,WNW,295,0.0,0.0,75,0.00,,,0.00,Wunderground v.1.15,2013-10-14 01:55:00,
2013-10-13 22:00:00,50.8,43.2,30.34,WNW,295,0.0,0.0,75,0.00,,,0.00,Wunderground v.1.15,2013-10-14 02:00:00,
2013-10-13 22:10:00,50.1,42.1,30.35,WNW,295,0.0,0.0,74,0.00,,,0.00,Wunderground v.1.15,2013-10-14 02:10:00,
2013-10-13 22:20:00,49.7,42.1,30.35,WNW,295,0.0,0.0,75,0.00,,,0.00,Wunderground v.1.15,2013-10-14 02:20:00,
2013-10-13 22:25:00,49.5,41.9,30.35,WNW,295,0.0,0.0,75,0.00,,,0.00,Wunderground v.1.15,2013-10-14 02:25:00,
2013-10-13 22:35:00,49.7,41.7,30.35,WNW,295,0.0,0.0,74,0.00,,,0.00,Wunderground v.1.15,2013-10-14 02:35:00,
2013-10-13 22:40:00,49.8,41.8,30.35,WNW,295,0.0,0.0,74,0.00,,,0.00,Wunderground v.1.15,2013-10-14 02:40:00,
2013-10-13 22:50:00,50.5,42.5,30.35,WNW,295,0.0,0.0,74,0.00,,,0.00,Wunderground v.1.15,2013-10-14 02:50:00,
2013-10-13 22:55:00,50.5,42.2,30.35,WNW,295,0.0,0.0,73,0.00,,,0.00,Wunderground v.1.15,2013-10-14 02:55:00,
2013-10-13 23:00:00,50.6,42.6,30.35,WNW,295,0.0,0.0,74,0.00,,,0.00,Wunderground v.1.15,2013-10-14 03:00:00,
2013-10-13 23:10:00,50.8,42.5,30.35,NNW,340,0.0,0.0,73,0.00,,,0.00,Wunderground v.1.15,2013-10-14 03:10:00,
2013-10-13 23:20:00,51.2,42.5,30.35,NNW,340,0.0,0.0,72,0.00,,,0.00,Wunderground v.1.15,2013-10-14 03:20:00,
2013-10-13 23:25:00,51.2,42.5,30.35,NNW,339,0.0,1.0,72,0.00,,,0.00,Wunderground v.1.15,2013-10-14 03:25:00,
2013-10-13 23:35:00,51.0,42.6,30.35,NNW,339,0.0,0.0,73,0.00,,,0.00,Wunderground v.1.15,2013-10-14 03:35:00,
2013-10-13 23:40:00,50.6,42.6,30.35,NNW,339,0.0,0.0,74,0.00,,,0.00,Wunderground v.1.15,2013-10-14 03:40:00,
2013-10-13 23:50:00,50.0,42.7,30.35,NNW,339,0.0,0.0,76,0.00,,,0.00,Wunderground v.1.15,2013-10-14 03:50:00,